Time;durP1;ratioP1;P1;durP2;ratioP2;P2;SDS_P1;SDS_P2;PMS_P1;PMS_P2;Temp;Humidity;BMP_temperature;BMP_pressure;BME280_temperature;BME280_humidity;BME280_pressure;Samples;Min_cycle;Max_cycle;Signal;HPM_P1;HPM_P2
2020/12/18 00:00:46;;;;;;;23.65;10.60;;;;;;;;;;4945424;29;20070;-57
2020/12/18 00:03:11;;;;;;;26.10;11.77;;;;;;;;;;4945209;29;20036;-54
2020/12/18 00:05:42;;;;;;;30.77;13.10;;;;;;;;;;4944241;29;20587;-58
2020/12/18 00:08:08;;;;;;;26.02;15.65;;;;;;;;;;4944836;29;20058;-56
2020/12/18 00:10:34;;;;;;;25.80;13.20;;;;;;;;;;4934694;29;20048;-57
2020/12/18 00:13:00;;;;;;;18.92;9.68;;;;;;;;;;4942713;29;20036;-59
2020/12/18 00:15:26;;;;;;;14.18;6.97;;;;;;;;;;4943322;29;20461;-58
2020/12/18 00:17:53;;;;;;;20.45;10.00;;;;;;;;;;4946456;29;20057;-56
2020/12/18 00:20:19;;;;;;;16.98;8.65;;;;;;;;;;4925180;29;20040;-55
2020/12/18 00:22:45;;;;;;;16.02;7.95;;;;;;;;;;4927877;29;20763;-58
2020/12/18 00:25:11;;;;;;;17.23;8.93;;;;;;;;;;4928025;29;20040;-55
2020/12/18 00:27:41;;;;;;;19.73;8.15;;;;;;;;;;4926980;29;20099;-57
2020/12/18 00:30:10;;;;;;;18.17;9.00;;;;;;;;;;4927808;29;20059;-55
2020/12/18 00:32:36;;;;;;;22.55;9.30;;;;;;;;;;4926047;29;20108;-55
2020/12/18 00:35:03;;;;;;;21.63;8.05;;;;;;;;;;4906488;29;20063;-58
2020/12/18 00:37:29;;;;;;;17.73;8.18;;;;;;;;;;4926172;29;20046;-58
2020/12/18 00:39:55;;;;;;;21.50;9.15;;;;;;;;;;4930964;29;20051;-58
2020/12/18 00:42:20;;;;;;;20.35;9.57;;;;;;;;;;4930470;29;20048;-57
2020/12/18 00:44:46;;;;;;;17.45;8.15;;;;;;;;;;4931676;29;20055;-57
2020/12/18 00:47:12;;;;;;;20.40;9.77;;;;;;;;;;4930552;29;20046;-58
2020/12/18 00:49:40;;;;;;;19.55;8.25;;;;;;;;;;4929771;29;20059;-57
2020/12/18 00:52:06;;;;;;;21.83;7.78;;;;;;;;;;4930706;29;20040;-56
2020/12/18 00:54:32;;;;;;;22.52;10.57;;;;;;;;;;4930422;29;20043;-55
2020/12/18 00:56:57;;;;;;;17.23;9.05;;;;;;;;;;4933066;29;20035;-56
2020/12/18 00:59:23;;;;;;;13.85;6.38;;;;;;;;;;4947571;29;20043;-55
2020/12/18 01:01:56;;;;;;;20.42;8.82;;;;;;;;;;4949084;29;20095;-58
2020/12/18 01:04:21;;;;;;;19.17;9.00;;;;;;;;;;4946740;29;20070;-57
2020/12/18 01:06:47;;;;;;;18.52;7.28;;;;;;;;;;4946654;29;20039;-56
2020/12/18 01:09:13;;;;;;;17.63;6.97;;;;;;;;;;4947041;29;20039;-57
2020/12/18 01:11:39;;;;;;;18.25;8.57;;;;;;;;;;4947141;28;20111;-57
2020/12/18 01:14:05;;;;;;;18.00;7.30;;;;;;;;;;4945438;29;20059;-56
2020/12/18 01:16:30;;;;;;;14.32;6.80;;;;;;;;;;4945861;29;20070;-57
2020/12/18 01:19:16;;;;;;;17.90;7.75;;;;;;;;;;4946893;29;20040;-57
2020/12/18 01:21:42;;;;;;;14.13;7.00;;;;;;;;;;4888370;29;20147;-55
2020/12/18 01:24:08;;;;;;;18.80;8.52;;;;;;;;;;4889823;29;20148;-57
2020/12/18 01:26:34;;;;;;;16.45;6.45;;;;;;;;;;4888508;29;20048;-55
2020/12/18 01:28:59;;;;;;;13.18;5.90;;;;;;;;;;4880098;29;20122;-55
2020/12/18 01:31:25;;;;;;;18.58;8.25;;;;;;;;;;4886696;29;23448;-59
2020/12/18 01:33:51;;;;;;;13.27;6.07;;;;;;;;;;4887596;29;20092;-55
2020/12/18 01:36:18;;;;;;;14.75;5.88;;;;;;;;;;4887966;29;20064;-58
2020/12/18 01:38:44;;;;;;;15.43;6.70;;;;;;;;;;4887682;29;20044;-56
2020/12/18 01:41:10;;;;;;;14.10;6.65;;;;;;;;;;4888468;29;20171;-57
2020/12/18 01:43:37;;;;;;;19.30;8.20;;;;;;;;;;4888738;29;20482;-55
2020/12/18 01:46:06;;;;;;;16.98;8.20;;;;;;;;;;4886809;29;20040;-57
2020/12/18 01:48:32;;;;;;;17.17;6.72;;;;;;;;;;4887961;29;20044;-56
2020/12/18 01:50:58;;;;;;;19.65;8.05;;;;;;;;;;4885589;29;20525;-54
2020/12/18 01:53:27;;;;;;;20.60;7.22;;;;;;;;;;4887623;29;20044;-56
2020/12/18 01:55:54;;;;;;;19.25;9.73;;;;;;;;;;4887831;29;20048;-58
2020/12/18 01:58:20;;;;;;;20.30;8.50;;;;;;;;;;4896092;29;20043;-58
2020/12/18 02:00:48;;;;;;;17.17;6.90;;;;;;;;;;4946179;29;20057;-57
2020/12/18 02:03:14;;;;;;;16.88;7.00;;;;;;;;;;4944354;29;20045;-58
2020/12/18 02:05:40;;;;;;;19.52;7.88;;;;;;;;;;4945386;29;20142;-57
2020/12/18 02:08:06;;;;;;;21.70;10.32;;;;;;;;;;4945472;29;20047;-58
2020/12/18 02:10:32;;;;;;;18.08;8.20;;;;;;;;;;4945060;29;20055;-57
2020/12/18 02:12:59;;;;;;;16.35;7.78;;;;;;;;;;4946128;29;20050;-58
2020/12/18 02:15:25;;;;;;;17.75;8.30;;;;;;;;;;4946378;29;20079;-57
2020/12/18 02:17:52;;;;;;;17.15;6.72;;;;;;;;;;4945803;29;20031;-55
2020/12/18 02:20:18;;;;;;;14.95;6.75;;;;;;;;;;4946389;29;20098;-54
2020/12/18 02:22:44;;;;;;;15.38;6.13;;;;;;;;;;4944601;29;20039;-57
2020/12/18 02:25:11;;;;;;;20.90;8.43;;;;;;;;;;4946016;29;20043;-57
2020/12/18 02:27:40;;;;;;;17.10;8.73;;;;;;;;;;4946634;29;20116;-56
2020/12/18 02:30:07;;;;;;;17.15;7.90;;;;;;;;;;4945480;29;20039;-57
2020/12/18 02:32:33;;;;;;;16.35;7.72;;;;;;;;;;4944606;29;20075;-57
2020/12/18 02:34:58;;;;;;;11.32;5.80;;;;;;;;;;4946749;29;20167;-57
2020/12/18 02:37:24;;;;;;;13.80;6.20;;;;;;;;;;4944810;29;20393;-55
2020/12/18 02:39:56;;;;;;;18.80;5.68;;;;;;;;;;4946926;29;20035;-57
2020/12/18 02:42:22;;;;;;;19.17;6.75;;;;;;;;;;4941911;29;20107;-57
2020/12/18 02:44:47;;;;;;;15.82;7.10;;;;;;;;;;4945364;29;20043;-55
2020/12/18 02:47:13;;;;;;;13.35;5.78;;;;;;;;;;4945427;29;20043;-57
2020/12/18 02:49:39;;;;;;;12.63;5.63;;;;;;;;;;4946771;29;20047;-57
2020/12/18 02:52:05;;;;;;;13.43;4.63;;;;;;;;;;4945167;29;20036;-56
2020/12/18 02:54:31;;;;;;;13.63;4.68;;;;;;;;;;4945892;29;20043;-53
2020/12/18 02:56:57;;;;;;;11.32;4.07;;;;;;;;;;4946635;29;20047;-56
2020/12/18 02:59:23;;;;;;;11.85;4.70;;;;;;;;;;4943121;29;20040;-55
2020/12/18 03:01:49;;;;;;;11.70;3.75;;;;;;;;;;4944863;28;20054;-56
2020/12/18 03:04:14;;;;;;;10.48;3.88;;;;;;;;;;4944928;29;20056;-57
2020/12/18 03:06:40;;;;;;;10.20;3.95;;;;;;;;;;4944177;29;20075;-57
2020/12/18 03:09:06;;;;;;;8.40;3.13;;;;;;;;;;4945320;29;20044;-57
2020/12/18 03:11:32;;;;;;;8.02;3.30;;;;;;;;;;4947004;29;20040;-54
2020/12/18 03:13:58;;;;;;;7.18;3.30;;;;;;;;;;4944981;29;20134;-57
2020/12/18 03:16:24;;;;;;;9.27;3.92;;;;;;;;;;4945286;29;20056;-57
2020/12/18 03:18:49;;;;;;;9.95;3.33;;;;;;;;;;4944813;29;20047;-55
2020/12/18 03:21:15;;;;;;;11.25;3.83;;;;;;;;;;4929596;29;20039;-54
2020/12/18 03:23:41;;;;;;;11.73;4.28;;;;;;;;;;4944283;29;20063;-56
2020/12/18 03:26:07;;;;;;;9.82;3.80;;;;;;;;;;4945208;29;20079;-55
2020/12/18 03:28:33;;;;;;;12.05;4.75;;;;;;;;;;4944546;29;20087;-57
2020/12/18 03:30:59;;;;;;;9.18;3.40;;;;;;;;;;4935239;29;20043;-54
2020/12/18 03:33:25;;;;;;;16.80;5.20;;;;;;;;;;4944576;29;20040;-55
2020/12/18 03:35:51;;;;;;;9.90;3.75;;;;;;;;;;4944558;29;20095;-57
2020/12/18 03:38:16;;;;;;;8.48;3.05;;;;;;;;;;4943809;29;20055;-57
2020/12/18 03:40:42;;;;;;;9.65;3.95;;;;;;;;;;4943463;29;20135;-57
2020/12/18 03:43:08;;;;;;;7.68;2.95;;;;;;;;;;4945294;29;20035;-56
2020/12/18 03:45:34;;;;;;;10.85;3.53;;;;;;;;;;4938041;29;20054;-56
2020/12/18 03:48:00;;;;;;;9.98;3.25;;;;;;;;;;4949340;29;20614;-57
2020/12/18 03:50:26;;;;;;;10.38;3.35;;;;;;;;;;4945164;29;20230;-56
2020/12/18 03:52:52;;;;;;;11.10;3.83;;;;;;;;;;4942735;29;20044;-57
2020/12/18 03:55:18;;;;;;;9.40;3.33;;;;;;;;;;4945028;29;20059;-57
2020/12/18 03:57:43;;;;;;;9.63;3.78;;;;;;;;;;4929127;29;20075;-55
2020/12/18 04:00:09;;;;;;;8.95;3.47;;;;;;;;;;4946144;29;20106;-57
2020/12/18 04:02:35;;;;;;;7.28;3.28;;;;;;;;;;4947017;29;20036;-58
2020/12/18 04:05:01;;;;;;;8.27;3.85;;;;;;;;;;4945183;29;20077;-56
2020/12/18 04:07:27;;;;;;;7.75;2.85;;;;;;;;;;4947562;29;20130;-56
2020/12/18 04:09:53;;;;;;;10.68;3.83;;;;;;;;;;4946384;29;20051;-58
2020/12/18 04:12:19;;;;;;;5.22;2.50;;;;;;;;;;4946703;28;20047;-58
2020/12/18 04:14:45;;;;;;;9.82;3.40;;;;;;;;;;4948386;29;20039;-57
2020/12/18 04:17:11;;;;;;;10.77;4.00;;;;;;;;;;4948657;29;20544;-57
2020/12/18 04:19:37;;;;;;;9.23;4.05;;;;;;;;;;4946165;29;20155;-58
2020/12/18 04:22:03;;;;;;;12.70;5.45;;;;;;;;;;4944805;29;20053;-58
2020/12/18 04:24:29;;;;;;;7.88;3.17;;;;;;;;;;4946997;29;20042;-54
2020/12/18 04:26:55;;;;;;;11.63;4.30;;;;;;;;;;4943253;29;20078;-55
2020/12/18 04:29:20;;;;;;;12.70;4.95;;;;;;;;;;4942589;29;20036;-58
2020/12/18 04:31:47;;;;;;;6.90;1.98;;;;;;;;;;4945454;29;20871;-58
2020/12/18 04:34:13;;;;;;;8.35;3.45;;;;;;;;;;4942669;29;20040;-58
2020/12/18 04:36:39;;;;;;;14.93;4.20;;;;;;;;;;4943328;29;20062;-55
2020/12/18 04:39:05;;;;;;;12.05;5.13;;;;;;;;;;4944871;29;20043;-58
2020/12/18 04:41:32;;;;;;;7.75;3.22;;;;;;;;;;4944491;29;20063;-59
2020/12/18 04:43:58;;;;;;;10.20;3.72;;;;;;;;;;4946813;29;20070;-58
2020/12/18 04:46:24;;;;;;;10.82;4.00;;;;;;;;;;4944286;29;20047;-58
2020/12/18 04:48:51;;;;;;;5.65;2.95;;;;;;;;;;4944106;29;20070;-58
2020/12/18 04:51:18;;;;;;;14.25;4.63;;;;;;;;;;4944293;29;20048;-57
2020/12/18 04:53:46;;;;;;;10.77;4.50;;;;;;;;;;4943573;29;20054;-58
2020/12/18 04:56:12;;;;;;;11.85;4.30;;;;;;;;;;4945098;29;20075;-58
2020/12/18 04:58:38;;;;;;;10.13;3.83;;;;;;;;;;4934034;29;20043;-56
2020/12/18 05:01:06;;;;;;;10.27;4.25;;;;;;;;;;4943427;29;20044;-58
2020/12/18 05:03:32;;;;;;;13.00;5.03;;;;;;;;;;4941756;29;20066;-54
2020/12/18 05:05:59;;;;;;;9.82;4.22;;;;;;;;;;4944334;29;20043;-57
2020/12/18 05:08:28;;;;;;;14.10;4.97;;;;;;;;;;4943854;29;20098;-60
2020/12/18 05:10:55;;;;;;;11.15;3.83;;;;;;;;;;4944632;29;20056;-56
2020/12/18 05:13:21;;;;;;;19.95;4.78;;;;;;;;;;4942188;29;20043;-56
2020/12/18 05:15:47;;;;;;;13.77;4.95;;;;;;;;;;4944840;29;20062;-57
2020/12/18 05:18:12;;;;;;;13.00;4.82;;;;;;;;;;4945001;29;20170;-57
2020/12/18 05:20:39;;;;;;;11.88;5.15;;;;;;;;;;4942739;29;20090;-57
2020/12/18 05:23:11;;;;;;;12.82;5.63;;;;;;;;;;4944405;29;20051;-56
2020/12/18 05:25:39;;;;;;;11.40;4.75;;;;;;;;;;4945889;28;20127;-57
2020/12/18 05:28:05;;;;;;;11.63;4.85;;;;;;;;;;4947673;29;20035;-57
2020/12/18 05:30:33;;;;;;;10.40;4.35;;;;;;;;;;4948511;29;20039;-57
2020/12/18 05:32:58;;;;;;;10.77;4.35;;;;;;;;;;4949120;29;20585;-55
2020/12/18 05:35:24;;;;;;;12.18;5.22;;;;;;;;;;4949626;29;20069;-57
2020/12/18 05:37:53;;;;;;;12.13;4.47;;;;;;;;;;4948640;29;20134;-55
2020/12/18 05:40:19;;;;;;;14.23;4.68;;;;;;;;;;4947842;29;20151;-57
2020/12/18 05:42:48;;;;;;;14.75;5.30;;;;;;;;;;4928650;29;20059;-56
2020/12/18 05:45:33;;;;;;;17.23;4.57;;;;;;;;;;4910640;29;20133;-58
2020/12/18 05:48:01;;;;;;;14.95;5.43;;;;;;;;;;4910502;29;20111;-57
2020/12/18 05:50:34;;;;;;;11.10;4.35;;;;;;;;;;4909802;29;20077;-58
2020/12/18 05:53:01;;;;;;;10.45;3.83;;;;;;;;;;4894191;29;20051;-57
2020/12/18 05:55:27;;;;;;;13.10;4.30;;;;;;;;;;4911524;29;20048;-57
2020/12/18 05:57:56;;;;;;;11.13;4.57;;;;;;;;;;4911916;29;20048;-55
2020/12/18 06:00:22;;;;;;;16.48;6.18;;;;;;;;;;4909309;29;20044;-57
2020/12/18 06:02:54;;;;;;;12.50;5.53;;;;;;;;;;4910329;29;20036;-57
2020/12/18 06:05:20;;;;;;;11.50;4.57;;;;;;;;;;4910078;29;20095;-55
2020/12/18 06:07:46;;;;;;;13.05;5.32;;;;;;;;;;4909824;29;20142;-55
2020/12/18 06:10:12;;;;;;;13.73;5.38;;;;;;;;;;4911084;29;20088;-57
2020/12/18 06:12:38;;;;;;;15.23;5.68;;;;;;;;;;4910360;29;20773;-58
2020/12/18 06:15:03;;;;;;;11.98;5.10;;;;;;;;;;4903012;29;20102;-57
2020/12/18 06:17:32;;;;;;;13.35;5.20;;;;;;;;;;4894224;29;20072;-57
2020/12/18 06:19:58;;;;;;;14.27;6.05;;;;;;;;;;4911391;29;20047;-58
2020/12/18 06:22:24;;;;;;;11.30;5.70;;;;;;;;;;4919599;29;20036;-56
2020/12/18 06:24:50;;;;;;;14.45;5.05;;;;;;;;;;4946411;29;20046;-57
2020/12/18 06:27:17;;;;;;;15.80;5.50;;;;;;;;;;4948273;29;20043;-57
2020/12/18 06:29:43;;;;;;;12.07;4.95;;;;;;;;;;4945508;29;20047;-55
2020/12/18 06:32:23;;;;;;;11.48;4.88;;;;;;;;;;4946879;29;20161;-57
2020/12/18 06:34:49;;;;;;;14.07;4.82;;;;;;;;;;4927343;29;20129;-54
2020/12/18 06:37:28;;;;;;;15.43;5.90;;;;;;;;;;4945442;29;20122;-54
2020/12/18 06:39:54;;;;;;;13.50;5.20;;;;;;;;;;4920745;29;20512;-57
2020/12/18 06:42:24;;;;;;;11.10;4.72;;;;;;;;;;4945177;29;20035;-57
2020/12/18 06:44:52;;;;;;;11.23;4.70;;;;;;;;;;4946677;29;20050;-57
2020/12/18 06:47:19;;;;;;;17.38;5.57;;;;;;;;;;4945901;29;20066;-55
2020/12/18 06:49:57;;;;;;;13.13;5.03;;;;;;;;;;4948145;29;20047;-57
2020/12/18 06:52:41;;;;;;;13.90;4.90;;;;;;;;;;4944938;29;20567;-58
2020/12/18 06:55:08;;;;;;;12.63;4.78;;;;;;;;;;4947779;29;20055;-57
2020/12/18 06:57:34;;;;;;;11.65;4.90;;;;;;;;;;4946279;29;20054;-57
2020/12/18 07:00:19;;;;;;;14.27;4.93;;;;;;;;;;4946642;29;20039;-57
2020/12/18 07:02:45;;;;;;;15.52;5.75;;;;;;;;;;4945069;29;20136;-56
2020/12/18 07:05:29;;;;;;;14.07;4.50;;;;;;;;;;4947515;29;20059;-56
2020/12/18 07:07:57;;;;;;;11.40;4.82;;;;;;;;;;4945725;29;20043;-57
2020/12/18 07:10:28;;;;;;;12.70;5.03;;;;;;;;;;4943739;29;20116;-55
2020/12/18 07:12:58;;;;;;;15.27;4.97;;;;;;;;;;4947090;29;20071;-57
2020/12/18 07:15:45;;;;;;;12.23;5.13;;;;;;;;;;4946875;29;20560;-57
2020/12/18 07:18:22;;;;;;;11.68;4.80;;;;;;;;;;4947526;29;20035;-57
2020/12/18 07:20:52;;;;;;;16.52;5.15;;;;;;;;;;4945430;29;20136;-57
2020/12/18 07:23:18;;;;;;;9.57;4.75;;;;;;;;;;4946624;29;20103;-57
2020/12/18 07:25:44;;;;;;;12.80;5.45;;;;;;;;;;4947312;29;20063;-55
2020/12/18 07:28:10;;;;;;;13.05;5.35;;;;;;;;;;4950547;29;20051;-57
2020/12/18 07:30:43;;;;;;;10.63;4.53;;;;;;;;;;4951070;29;20032;-56
2020/12/18 07:33:09;;;;;;;23.77;6.60;;;;;;;;;;4953687;29;20049;-58
2020/12/18 07:35:45;;;;;;;12.63;4.72;;;;;;;;;;4956461;29;20048;-58
2020/12/18 07:38:19;;;;;;;14.27;4.82;;;;;;;;;;4957044;29;20054;-58
2020/12/18 07:40:46;;;;;;;13.50;4.43;;;;;;;;;;4957965;29;20132;-58
2020/12/18 07:43:13;;;;;;;9.60;4.35;;;;;;;;;;4957191;29;20040;-58
2020/12/18 07:45:46;;;;;;;18.00;5.07;;;;;;;;;;4956184;29;20047;-58
2020/12/18 07:48:15;;;;;;;11.07;4.32;;;;;;;;;;4954026;28;20095;-57
2020/12/18 07:50:41;;;;;;;15.75;5.45;;;;;;;;;;4955667;29;20043;-58
2020/12/18 07:53:10;;;;;;;10.60;4.95;;;;;;;;;;4952567;29;20035;-58
2020/12/18 07:55:37;;;;;;;10.65;4.70;;;;;;;;;;4947003;29;20187;-54
2020/12/18 07:58:04;;;;;;;13.50;4.22;;;;;;;;;;4929580;29;20043;-56
2020/12/18 08:00:30;;;;;;;11.40;4.35;;;;;;;;;;4945324;29;20064;-57
2020/12/18 08:02:56;;;;;;;12.45;4.72;;;;;;;;;;4945730;29;20039;-56
2020/12/18 08:05:22;;;;;;;11.30;4.78;;;;;;;;;;4940714;28;20075;-57
2020/12/18 08:07:57;;;;;;;13.10;4.57;;;;;;;;;;4945733;29;20076;-57
2020/12/18 08:10:23;;;;;;;13.60;4.53;;;;;;;;;;4943637;29;20510;-54
2020/12/18 08:12:49;;;;;;;9.93;4.60;;;;;;;;;;4943547;29;20040;-57
2020/12/18 08:15:15;;;;;;;12.23;4.95;;;;;;;;;;4944005;29;20060;-57
2020/12/18 08:17:42;;;;;;;11.20;3.92;;;;;;;;;;4944341;29;20046;-56
2020/12/18 08:20:11;;;;;;;16.27;4.60;;;;;;;;;;4945259;29;20035;-55
2020/12/18 08:22:39;;;;;;;13.30;4.82;;;;;;;;;;4942761;29;20043;-57
2020/12/18 08:25:06;;;;;;;13.05;4.15;;;;;;;;;;4944655;29;20075;-56
2020/12/18 08:27:34;;;;;;;13.55;4.00;;;;;;;;;;4944708;29;20126;-58
2020/12/18 08:30:01;;;;;;;9.80;4.35;;;;;;;;;;4943768;29;20040;-58
2020/12/18 08:32:28;;;;;;;11.27;4.70;;;;;;;;;;4942473;29;20058;-58
2020/12/18 08:35:03;;;;;;;19.02;4.75;;;;;;;;;;4944112;29;20055;-58
2020/12/18 08:37:29;;;;;;;16.73;4.90;;;;;;;;;;4943935;29;20043;-56
2020/12/18 08:39:55;;;;;;;11.07;4.70;;;;;;;;;;4943512;29;20102;-58
2020/12/18 08:42:21;;;;;;;9.23;4.05;;;;;;;;;;4945166;29;20048;-58
2020/12/18 08:44:47;;;;;;;12.10;4.10;;;;;;;;;;4945800;29;20043;-57
2020/12/18 08:47:22;;;;;;;10.10;3.78;;;;;;;;;;4946136;29;20759;-58
2020/12/18 08:49:48;;;;;;;14.32;5.05;;;;;;;;;;4943764;29;20489;-58
2020/12/18 08:52:14;;;;;;;14.48;4.45;;;;;;;;;;4943865;29;20051;-57
2020/12/18 08:54:40;;;;;;;11.45;3.85;;;;;;;;;;4943968;29;20043;-59
2020/12/18 08:57:12;;;;;;;12.55;4.15;;;;;;;;;;4945319;29;20072;-56
2020/12/18 08:59:38;;;;;;;10.15;3.55;;;;;;;;;;4944786;28;20143;-57
2020/12/18 09:02:04;;;;;;;14.43;4.30;;;;;;;;;;4948634;29;20071;-58
2020/12/18 09:04:30;;;;;;;11.13;3.53;;;;;;;;;;4947374;29;20615;-59
2020/12/18 09:06:56;;;;;;;9.30;3.50;;;;;;;;;;4938361;29;20036;-56
2020/12/18 09:09:22;;;;;;;14.07;4.35;;;;;;;;;;4947218;29;20035;-58
2020/12/18 09:11:49;;;;;;;9.82;4.03;;;;;;;;;;4946418;29;20043;-58
2020/12/18 09:14:28;;;;;;;15.07;4.03;;;;;;;;;;4947794;29;20126;-58
2020/12/18 09:16:57;;;;;;;10.27;4.18;;;;;;;;;;4949082;29;20063;-56
2020/12/18 09:19:23;;;;;;;10.88;3.83;;;;;;;;;;4948220;29;20035;-59
2020/12/18 09:21:49;;;;;;;11.13;3.50;;;;;;;;;;4949221;29;20139;-58
2020/12/18 09:24:24;;;;;;;9.88;3.95;;;;;;;;;;4949000;29;20069;-58
2020/12/18 09:26:49;;;;;;;14.00;4.60;;;;;;;;;;4948603;29;20055;-58
2020/12/18 09:29:16;;;;;;;13.18;4.95;;;;;;;;;;4929815;29;20043;-58
2020/12/18 09:31:42;;;;;;;13.57;5.00;;;;;;;;;;4944654;29;20042;-56
2020/12/18 09:34:15;;;;;;;11.35;4.03;;;;;;;;;;4928024;29;20055;-58
2020/12/18 09:36:41;;;;;;;14.27;4.88;;;;;;;;;;4948080;29;20072;-57
2020/12/18 09:39:07;;;;;;;9.57;3.67;;;;;;;;;;4948035;29;20050;-58
2020/12/18 09:41:33;;;;;;;10.43;3.80;;;;;;;;;;4947069;29;20031;-57
2020/12/18 09:43:58;;;;;;;13.15;4.45;;;;;;;;;;4946062;29;20051;-58
2020/12/18 09:46:24;;;;;;;10.27;3.95;;;;;;;;;;4946677;28;20043;-58
2020/12/18 09:48:50;;;;;;;9.32;3.67;;;;;;;;;;4946891;28;20045;-58
2020/12/18 09:51:17;;;;;;;12.00;3.90;;;;;;;;;;4947329;29;20050;-57
2020/12/18 09:53:43;;;;;;;20.20;3.88;;;;;;;;;;4948569;29;20047;-57
2020/12/18 09:56:09;;;;;;;9.02;3.50;;;;;;;;;;4947941;29;20051;-58
2020/12/18 09:58:36;;;;;;;20.23;4.43;;;;;;;;;;4947379;29;20126;-58
2020/12/18 10:01:01;;;;;;;12.82;3.53;;;;;;;;;;4946302;29;20050;-58
2020/12/18 10:03:27;;;;;;;7.40;3.45;;;;;;;;;;4945310;29;20103;-57
2020/12/18 10:05:53;;;;;;;11.23;3.67;;;;;;;;;;4947594;29;20059;-58
2020/12/18 10:08:19;;;;;;;9.77;4.40;;;;;;;;;;4945225;29;20040;-58
2020/12/18 10:10:45;;;;;;;8.73;2.92;;;;;;;;;;4945836;28;20057;-58
2020/12/18 10:13:11;;;;;;;10.85;4.13;;;;;;;;;;4948962;29;20039;-58
2020/12/18 10:15:37;;;;;;;7.95;3.47;;;;;;;;;;4928871;29;20052;-56
2020/12/18 10:18:03;;;;;;;15.13;4.10;;;;;;;;;;4946990;29;20079;-55
2020/12/18 10:20:29;;;;;;;13.55;4.15;;;;;;;;;;4944556;29;20039;-58
2020/12/18 10:22:55;;;;;;;11.32;3.42;;;;;;;;;;4945298;29;20043;-58
2020/12/18 10:25:21;;;;;;;12.10;4.57;;;;;;;;;;4945783;29;20042;-58
2020/12/18 10:27:47;;;;;;;15.13;4.35;;;;;;;;;;4947005;29;20043;-57
2020/12/18 10:30:13;;;;;;;11.25;4.15;;;;;;;;;;4946889;29;20134;-57
2020/12/18 10:32:39;;;;;;;8.77;3.58;;;;;;;;;;4945725;29;20040;-57
2020/12/18 10:35:06;;;;;;;10.95;4.85;;;;;;;;;;4945500;29;20058;-56
2020/12/18 10:37:32;;;;;;;14.43;4.82;;;;;;;;;;4945525;29;20050;-58
2020/12/18 10:39:58;;;;;;;12.88;4.22;;;;;;;;;;4948182;29;20051;-57
2020/12/18 10:42:24;;;;;;;13.60;4.63;;;;;;;;;;4945610;29;20043;-58
2020/12/18 10:44:49;;;;;;;8.35;2.95;;;;;;;;;;4948325;29;20130;-58
2020/12/18 10:47:15;;;;;;;12.80;4.20;;;;;;;;;;4947480;29;20901;-58
2020/12/18 10:49:41;;;;;;;11.60;4.68;;;;;;;;;;4946939;29;20054;-59
2020/12/18 10:52:07;;;;;;;13.90;4.18;;;;;;;;;;4946041;29;20036;-58
2020/12/18 10:54:33;;;;;;;13.02;4.25;;;;;;;;;;4945005;29;20046;-58
2020/12/18 10:56:59;;;;;;;12.07;4.30;;;;;;;;;;4946119;29;20055;-57
2020/12/18 10:59:29;;;;;;;10.88;3.85;;;;;;;;;;4926920;29;20044;-56
2020/12/18 11:01:56;;;;;;;11.45;3.75;;;;;;;;;;4945488;29;20048;-58
2020/12/18 11:04:22;;;;;;;12.40;4.57;;;;;;;;;;4944923;29;20091;-57
2020/12/18 11:06:48;;;;;;;12.23;3.80;;;;;;;;;;4945979;29;20182;-56
2020/12/18 11:09:14;;;;;;;12.35;4.43;;;;;;;;;;4944610;29;20164;-58
2020/12/18 11:11:40;;;;;;;11.23;4.25;;;;;;;;;;4945095;29;20051;-58
2020/12/18 11:14:08;;;;;;;12.93;4.00;;;;;;;;;;4945504;28;20051;-57
2020/12/18 11:16:34;;;;;;;13.40;4.30;;;;;;;;;;4945625;29;20369;-59
2020/12/18 11:19:01;;;;;;;11.88;4.15;;;;;;;;;;4932591;29;20035;-58
2020/12/18 11:21:28;;;;;;;16.50;4.57;;;;;;;;;;4945025;29;20488;-58
2020/12/18 11:23:53;;;;;;;15.77;4.68;;;;;;;;;;4945703;29;20043;-56
2020/12/18 11:26:19;;;;;;;12.68;3.65;;;;;;;;;;4945142;29;20106;-58
2020/12/18 11:28:45;;;;;;;12.68;4.38;;;;;;;;;;4944955;29;20059;-59
2020/12/18 11:31:11;;;;;;;12.20;4.53;;;;;;;;;;4944215;29;20035;-59
2020/12/18 11:33:37;;;;;;;11.90;3.55;;;;;;;;;;4943749;29;20040;-59
2020/12/18 11:36:02;;;;;;;10.68;4.07;;;;;;;;;;4934519;29;20053;-58
2020/12/18 11:38:28;;;;;;;11.73;3.97;;;;;;;;;;4945133;29;20036;-57
2020/12/18 11:40:54;;;;;;;12.15;3.97;;;;;;;;;;4944540;29;20047;-58
2020/12/18 11:43:20;;;;;;;9.98;3.85;;;;;;;;;;4943803;29;20039;-59
2020/12/18 11:45:46;;;;;;;12.15;4.95;;;;;;;;;;4929422;29;20107;-58
2020/12/18 11:48:12;;;;;;;11.45;3.75;;;;;;;;;;4945722;29;20115;-59
2020/12/18 11:50:38;;;;;;;13.43;4.38;;;;;;;;;;4941452;29;20067;-58
2020/12/18 11:53:05;;;;;;;13.82;5.15;;;;;;;;;;4945690;29;20098;-59
2020/12/18 11:55:31;;;;;;;15.23;4.25;;;;;;;;;;4945387;29;20598;-57
2020/12/18 11:57:56;;;;;;;15.70;4.60;;;;;;;;;;4947303;29;20748;-58
2020/12/18 12:00:22;;;;;;;12.98;4.30;;;;;;;;;;4945123;29;20067;-58
2020/12/18 12:02:49;;;;;;;17.75;5.85;;;;;;;;;;4946181;29;20035;-58
2020/12/18 12:05:18;;;;;;;13.10;5.22;;;;;;;;;;4947976;29;20054;-56
2020/12/18 12:07:46;;;;;;;12.45;4.70;;;;;;;;;;4946865;29;20040;-54
2020/12/18 12:10:12;;;;;;;11.02;4.53;;;;;;;;;;4944468;29;20043;-58
2020/12/18 12:12:38;;;;;;;13.68;4.50;;;;;;;;;;4946148;29;20122;-57
2020/12/18 12:15:05;;;;;;;14.57;4.63;;;;;;;;;;4943581;29;20090;-57
2020/12/18 12:17:31;;;;;;;10.63;3.97;;;;;;;;;;4944013;29;20066;-58
2020/12/18 12:19:56;;;;;;;14.75;4.88;;;;;;;;;;4945877;29;20083;-55
2020/12/18 12:22:23;;;;;;;13.00;4.63;;;;;;;;;;4943902;29;20048;-57
2020/12/18 12:24:49;;;;;;;16.00;4.80;;;;;;;;;;4911243;29;20113;-57
2020/12/18 12:27:16;;;;;;;15.52;5.15;;;;;;;;;;4943415;29;20053;-58
2020/12/18 12:29:41;;;;;;;14.45;5.65;;;;;;;;;;4944455;29;20051;-58
2020/12/18 12:32:07;;;;;;;14.13;5.13;;;;;;;;;;4944682;29;20047;-58
2020/12/18 12:34:33;;;;;;;21.48;6.10;;;;;;;;;;4945080;29;20054;-59
2020/12/18 12:37:00;;;;;;;13.95;5.20;;;;;;;;;;4943028;29;20061;-58
2020/12/18 12:39:26;;;;;;;13.00;5.43;;;;;;;;;;4935939;29;20043;-57
2020/12/18 12:41:52;;;;;;;14.70;5.22;;;;;;;;;;4944125;29;20789;-57
2020/12/18 12:44:18;;;;;;;12.25;4.55;;;;;;;;;;4928216;29;20032;-57
2020/12/18 12:46:44;;;;;;;14.75;5.50;;;;;;;;;;4943186;29;20052;-57
2020/12/18 12:49:10;;;;;;;13.35;4.93;;;;;;;;;;4944202;29;20412;-56
2020/12/18 12:51:36;;;;;;;15.30;5.50;;;;;;;;;;4943206;29;20035;-57
2020/12/18 12:54:02;;;;;;;13.85;4.78;;;;;;;;;;4944115;29;20042;-57
2020/12/18 12:56:28;;;;;;;15.77;5.18;;;;;;;;;;4943578;29;20078;-57
2020/12/18 12:58:54;;;;;;;14.32;5.00;;;;;;;;;;4946543;29;20051;-57
2020/12/18 13:01:20;;;;;;;20.65;4.80;;;;;;;;;;4942910;29;20114;-56
2020/12/18 13:03:45;;;;;;;13.63;5.10;;;;;;;;;;4943958;29;20039;-58
2020/12/18 13:06:11;;;;;;;13.38;4.80;;;;;;;;;;4944032;29;20051;-55
2020/12/18 13:08:37;;;;;;;13.52;4.25;;;;;;;;;;4941550;29;20039;-57
2020/12/18 13:11:03;;;;;;;11.93;4.53;;;;;;;;;;4945131;29;20082;-58
2020/12/18 13:13:29;;;;;;;12.27;5.05;;;;;;;;;;4943824;29;20078;-57
2020/12/18 13:15:55;;;;;;;20.20;4.70;;;;;;;;;;4944208;29;20047;-58
2020/12/18 13:18:21;;;;;;;13.13;4.75;;;;;;;;;;4941961;29;20107;-55
2020/12/18 13:20:46;;;;;;;14.57;4.18;;;;;;;;;;4943739;29;20759;-57
2020/12/18 13:23:12;;;;;;;16.35;5.82;;;;;;;;;;4943927;29;20059;-57
2020/12/18 13:25:38;;;;;;;11.52;4.32;;;;;;;;;;4943256;29;20456;-56
2020/12/18 13:28:04;;;;;;;15.18;5.07;;;;;;;;;;4944017;29;20039;-57
2020/12/18 13:30:39;;;;;;;21.38;6.45;;;;;;;;;;4943109;29;20126;-57
2020/12/18 13:33:04;;;;;;;14.93;5.50;;;;;;;;;;4943394;29;20073;-57
2020/12/18 13:35:30;;;;;;;7.88;4.13;;;;;;;;;;4944140;29;20218;-58
2020/12/18 13:37:56;;;;;;;14.15;5.82;;;;;;;;;;4945662;29;20046;-57
2020/12/18 13:40:22;;;;;;;14.55;6.05;;;;;;;;;;4942373;29;20051;-56
2020/12/18 13:42:48;;;;;;;16.63;4.93;;;;;;;;;;4944214;29;20071;-56
2020/12/18 13:45:14;;;;;;;17.02;6.78;;;;;;;;;;4943259;28;20047;-57
2020/12/18 13:47:41;;;;;;;13.57;4.90;;;;;;;;;;4945844;29;20043;-54
2020/12/18 13:50:08;;;;;;;13.48;4.70;;;;;;;;;;4949539;29;20102;-55
2020/12/18 13:52:34;;;;;;;15.15;5.82;;;;;;;;;;4946322;29;20050;-57
2020/12/18 13:54:59;;;;;;;13.25;5.90;;;;;;;;;;4947726;29;20149;-57
2020/12/18 13:57:25;;;;;;;17.90;6.28;;;;;;;;;;4947375;29;20035;-54
2020/12/18 13:59:53;;;;;;;17.52;6.68;;;;;;;;;;4945675;29;20095;-57
2020/12/18 14:02:19;;;;;;;19.48;7.32;;;;;;;;;;4945245;29;20055;-55
2020/12/18 14:04:45;;;;;;;16.17;6.13;;;;;;;;;;4946522;29;20055;-56
2020/12/18 14:07:11;;;;;;;15.60;6.38;;;;;;;;;;4948363;29;20055;-57
2020/12/18 14:09:37;;;;;;;22.42;8.07;;;;;;;;;;4945871;29;20051;-58
2020/12/18 14:12:03;;;;;;;15.73;6.45;;;;;;;;;;4946850;28;20055;-55
2020/12/18 14:14:30;;;;;;;18.20;7.75;;;;;;;;;;4944635;29;20043;-58
2020/12/18 14:16:56;;;;;;;21.25;7.93;;;;;;;;;;4948201;29;20043;-57
2020/12/18 14:19:22;;;;;;;18.95;7.20;;;;;;;;;;4942977;29;20039;-57
2020/12/18 14:21:51;;;;;;;18.90;7.88;;;;;;;;;;4945842;29;20051;-56
2020/12/18 14:24:17;;;;;;;19.73;6.88;;;;;;;;;;4945191;29;20082;-57
2020/12/18 14:26:43;;;;;;;21.42;7.88;;;;;;;;;;4945636;29;20047;-54
2020/12/18 14:29:09;;;;;;;16.90;7.43;;;;;;;;;;4945637;29;20039;-58